createdAt,value
2019-02-10T00:00:38.189Z,6.50
2019-02-10T00:01:51.144Z,6.50
2019-02-10T00:02:57.858Z,6.50
2019-02-10T00:04:05.658Z,6.50
2019-02-10T00:05:12.485Z,6.40
2019-02-10T00:06:24.581Z,6.50
2019-02-10T00:07:27.797Z,6.50
2019-02-10T00:08:34.611Z,6.40
2019-02-10T00:09:41.475Z,6.40
2019-02-10T00:10:48.251Z,6.40
2019-02-10T00:11:55.053Z,6.40
2019-02-10T00:13:39.613Z,6.40
2019-02-10T00:14:46.079Z,6.40
2019-02-10T00:15:52.826Z,6.40
2019-02-10T00:16:59.544Z,6.40
2019-02-10T00:18:06.350Z,6.40
2019-02-10T00:19:13.083Z,6.40
2019-02-10T00:20:19.802Z,6.40
2019-02-10T00:21:26.607Z,6.40
2019-02-10T00:22:33.424Z,6.40
2019-02-10T00:23:40.171Z,6.40
2019-02-10T00:24:46.971Z,6.40
2019-02-10T00:25:54.787Z,6.40
2019-02-10T00:27:01.591Z,6.40
2019-02-10T00:28:08.420Z,6.40
2019-02-10T00:29:15.284Z,6.40
2019-02-10T00:30:25.606Z,6.40
2019-02-10T00:31:33.399Z,6.40
2019-02-10T00:32:40.281Z,6.40
2019-02-10T00:33:47.025Z,6.40
2019-02-10T00:34:53.947Z,6.40
2019-02-10T00:36:00.808Z,6.40
2019-02-10T00:37:07.803Z,6.40
2019-02-10T00:38:14.537Z,6.40
2019-02-10T00:39:21.292Z,6.40
2019-02-10T00:40:28.005Z,6.40
2019-02-10T00:41:35.815Z,6.40
2019-02-10T00:42:42.703Z,6.50
2019-02-10T00:43:49.600Z,6.50
2019-02-10T00:44:56.347Z,6.50
2019-02-10T00:46:03.085Z,6.50
2019-02-10T00:47:09.972Z,6.50
2019-02-10T00:48:16.688Z,6.50
2019-02-10T00:49:23.421Z,6.50
2019-02-10T00:50:30.245Z,6.50
2019-02-10T00:51:37.046Z,6.50
2019-02-10T00:52:43.860Z,6.50
2019-02-10T00:53:50.647Z,6.50
2019-02-10T00:54:57.380Z,6.50
2019-02-10T00:56:04.326Z,6.50
2019-02-10T00:57:11.054Z,6.50
2019-02-10T00:58:17.932Z,6.50
2019-02-10T00:59:24.805Z,6.50
2019-02-10T01:00:31.563Z,6.50
2019-02-10T01:01:38.339Z,6.50
2019-02-10T01:02:45.200Z,6.40
2019-02-10T01:03:51.943Z,6.40
2019-02-10T01:05:10.855Z,6.40
2019-02-10T01:06:17.582Z,6.40
2019-02-10T01:07:24.399Z,6.40
2019-02-10T01:08:31.335Z,6.30
2019-02-10T01:09:39.231Z,6.40
2019-02-10T01:10:46.016Z,6.30
2019-02-10T01:11:52.762Z,6.30
2019-02-10T01:12:59.488Z,6.30
2019-02-10T01:14:06.211Z,6.20
2019-02-10T01:15:13.016Z,6.30
2019-02-10T01:16:19.729Z,6.20
2019-02-10T01:17:26.610Z,6.20
2019-02-10T01:18:33.431Z,6.20
2019-02-10T01:19:40.217Z,6.20
2019-02-10T01:20:46.952Z,6.20
2019-02-10T01:21:53.679Z,6.20
2019-02-10T01:23:00.457Z,6.20
2019-02-10T01:24:07.198Z,6.20
2019-02-10T01:25:13.973Z,6.20
2019-02-10T01:26:20.761Z,6.20
2019-02-10T01:27:27.501Z,6.10
2019-02-10T01:28:34.237Z,6.20
2019-02-10T01:29:40.970Z,6.20
2019-02-10T01:30:47.700Z,6.20
2019-02-10T01:31:54.508Z,6.20
2019-02-10T01:33:01.312Z,6.20
2019-02-10T01:34:08.125Z,6.20
2019-02-10T01:35:14.835Z,6.20
2019-02-10T01:36:22.664Z,6.20
2019-02-10T01:37:29.398Z,6.20
2019-02-10T01:38:36.141Z,6.20
2019-02-10T01:39:42.846Z,6.20
2019-02-10T01:40:50.671Z,6.20
2019-02-10T01:41:57.402Z,6.20
2019-02-10T01:43:04.232Z,6.20
2019-02-10T01:44:11.065Z,6.20
2019-02-10T01:45:18.015Z,6.20
2019-02-10T01:46:24.785Z,6.20
2019-02-10T01:47:31.547Z,6.20
2019-02-10T01:48:38.270Z,6.20
2019-02-10T01:49:45.083Z,6.20
2019-02-10T01:50:51.914Z,6.20
2019-02-10T01:51:58.709Z,6.20
2019-02-10T01:53:05.418Z,6.20
2019-02-10T01:54:12.229Z,6.20
2019-02-10T01:55:19.034Z,6.20
2019-02-10T01:56:25.783Z,6.20
2019-02-10T01:57:32.501Z,6.20
2019-02-10T01:58:39.249Z,6.20
2019-02-10T01:59:46.057Z,6.20
2019-02-10T02:00:52.775Z,6.20
2019-02-10T02:01:59.521Z,6.20
2019-02-10T02:03:06.269Z,6.20
2019-02-10T02:04:13.156Z,6.20
2019-02-10T02:05:19.896Z,6.20
2019-02-10T02:06:26.767Z,6.20
2019-02-10T02:07:33.613Z,6.20
2019-02-10T02:08:40.340Z,6.20
2019-02-10T02:09:47.491Z,6.20
2019-02-10T02:10:54.282Z,6.20
2019-02-10T02:12:00.999Z,6.20
2019-02-10T02:13:07.818Z,6.10
2019-02-10T02:14:14.615Z,6.10
2019-02-10T02:15:21.478Z,6.10
2019-02-10T02:16:28.250Z,6.10
2019-02-10T02:17:35.045Z,6.10
2019-02-10T02:18:41.837Z,6.10
2019-02-10T02:19:48.648Z,6.10
2019-02-10T02:20:55.445Z,6.10
2019-02-10T02:22:02.325Z,6.10
2019-02-10T02:23:09.126Z,6.10
2019-02-10T02:24:15.838Z,6.00
2019-02-10T02:25:22.597Z,6.00
2019-02-10T02:26:38.338Z,6.10
2019-02-10T02:27:45.055Z,6.00
2019-02-10T02:28:51.851Z,6.00
2019-02-10T02:29:58.586Z,6.10
2019-02-10T02:31:05.333Z,6.10
2019-02-10T02:32:12.148Z,6.10
2019-02-10T02:33:19.021Z,6.10
2019-02-10T02:34:25.747Z,6.10
2019-02-10T02:35:32.518Z,6.10
2019-02-10T02:36:45.100Z,6.10
2019-02-10T02:37:51.848Z,6.10
2019-02-10T02:39:10.783Z,6.10
2019-02-10T02:40:17.638Z,6.10
2019-02-10T02:41:24.357Z,6.10
2019-02-10T02:42:31.154Z,6.10
2019-02-10T02:43:37.967Z,6.10
2019-02-10T02:44:44.685Z,6.10
2019-02-10T02:45:51.500Z,6.10
2019-02-10T02:46:58.217Z,6.10
2019-02-10T02:48:05.037Z,6.10
2019-02-10T02:49:11.782Z,6.10
2019-02-10T02:50:18.500Z,6.10
2019-02-10T02:51:25.773Z,6.10
2019-02-10T02:52:32.515Z,6.10
2019-02-10T02:53:42.401Z,6.10
2019-02-10T02:54:49.149Z,6.10
2019-02-10T02:55:55.870Z,6.10
2019-02-10T02:57:02.587Z,6.10
2019-02-10T02:58:09.525Z,6.10
2019-02-10T02:59:16.334Z,6.10
2019-02-10T03:00:23.040Z,6.10
2019-02-10T03:01:29.864Z,6.10
2019-02-10T03:02:36.564Z,6.10
2019-02-10T03:03:43.290Z,6.10
2019-02-10T03:04:50.105Z,6.10
2019-02-10T03:05:56.980Z,6.10
2019-02-10T03:07:03.783Z,6.10
2019-02-10T03:08:10.518Z,6.10
2019-02-10T03:09:17.743Z,6.10
2019-02-10T03:10:24.555Z,6.10
2019-02-10T03:11:31.346Z,6.20
2019-02-10T03:12:38.107Z,6.10
2019-02-10T03:13:44.898Z,6.10
2019-02-10T03:14:51.645Z,6.20
2019-02-10T03:15:58.417Z,6.20
2019-02-10T03:17:05.223Z,6.20
2019-02-10T03:18:12.082Z,6.20
2019-02-10T03:19:21.884Z,6.20
2019-02-10T03:20:28.609Z,6.20
2019-02-10T03:21:35.431Z,6.20
2019-02-10T03:22:42.242Z,6.20
2019-02-10T03:23:48.971Z,6.20
2019-02-10T03:24:55.841Z,6.20
2019-02-10T03:26:02.603Z,6.20
2019-02-10T03:27:09.332Z,6.30
2019-02-10T03:28:16.158Z,6.30
2019-02-10T03:29:22.890Z,6.30
2019-02-10T03:30:29.607Z,6.30
2019-02-10T03:31:36.483Z,6.30
2019-02-10T03:32:44.469Z,6.30
2019-02-10T03:33:51.380Z,6.30
2019-02-10T03:34:58.203Z,6.30
2019-02-10T03:36:05.044Z,6.30
2019-02-10T03:37:11.934Z,6.30
2019-02-10T03:38:18.770Z,6.30
2019-02-10T03:39:25.520Z,6.30
2019-02-10T03:40:32.239Z,6.30
2019-02-10T03:41:39.048Z,6.30
2019-02-10T03:42:45.763Z,6.30
2019-02-10T03:43:52.511Z,6.30
2019-02-10T03:44:59.305Z,6.40
2019-02-10T03:46:06.052Z,6.40
2019-02-10T03:47:12.856Z,6.40
2019-02-10T03:48:19.590Z,6.40
2019-02-10T03:49:26.312Z,6.40
2019-02-10T03:50:33.034Z,6.40
2019-02-10T03:51:39.794Z,6.40
2019-02-10T03:52:46.532Z,6.40
2019-02-10T03:53:53.260Z,6.40
2019-02-10T03:55:00.308Z,6.40
2019-02-10T03:56:07.247Z,6.50
2019-02-10T03:57:13.980Z,6.40
2019-02-10T03:58:20.784Z,6.50
2019-02-10T03:59:27.578Z,6.50
2019-02-10T04:00:34.324Z,6.50
2019-02-10T04:01:41.077Z,6.50
2019-02-10T04:02:47.784Z,6.50
2019-02-10T04:03:54.538Z,6.50
2019-02-10T04:05:01.404Z,6.50
2019-02-10T04:06:08.191Z,6.50
2019-02-10T04:07:14.926Z,6.50
2019-02-10T04:08:21.718Z,6.50
2019-02-10T04:09:28.556Z,6.50
2019-02-10T04:10:35.367Z,6.50
2019-02-10T04:11:42.250Z,6.50
2019-02-10T04:12:48.972Z,6.50
2019-02-10T04:13:55.789Z,6.50
2019-02-10T04:15:02.611Z,6.50
2019-02-10T04:16:09.336Z,6.50
2019-02-10T04:17:16.153Z,6.60
2019-02-10T04:18:22.868Z,6.60
2019-02-10T04:19:29.600Z,6.60
2019-02-10T04:20:36.339Z,6.60
2019-02-10T04:21:43.105Z,6.60
2019-02-10T04:22:50.924Z,6.60
2019-02-10T04:23:57.649Z,6.60
2019-02-10T04:25:04.392Z,6.60
2019-02-10T04:26:11.127Z,6.60
2019-02-10T04:27:18.007Z,6.60
2019-02-10T04:28:24.743Z,6.60
2019-02-10T04:29:32.698Z,6.60
2019-02-10T04:30:39.517Z,6.70
2019-02-10T04:31:46.324Z,6.70
2019-02-10T04:32:53.080Z,6.70
2019-02-10T04:33:59.775Z,6.70
2019-02-10T04:35:06.664Z,6.70
2019-02-10T04:36:13.490Z,6.70
2019-02-10T04:37:20.341Z,6.70
2019-02-10T04:38:27.186Z,6.70
2019-02-10T04:39:33.915Z,6.70
2019-02-10T04:40:40.717Z,6.70
2019-02-10T04:41:47.517Z,6.70
2019-02-10T04:42:54.241Z,6.70
2019-02-10T04:44:01.146Z,6.70
2019-02-10T04:45:07.925Z,6.70
2019-02-10T04:46:15.619Z,6.80
2019-02-10T04:47:22.411Z,6.80
2019-02-10T04:48:29.211Z,6.80
2019-02-10T04:49:36.035Z,6.80
2019-02-10T04:50:43.015Z,6.80
2019-02-10T04:51:49.819Z,6.80
2019-02-10T04:52:56.625Z,6.80
2019-02-10T04:54:03.335Z,6.80
2019-02-10T04:55:10.172Z,6.80
2019-02-10T04:56:20.709Z,6.80
2019-02-10T04:57:27.441Z,6.80
2019-02-10T04:58:34.256Z,6.80
2019-02-10T04:59:40.994Z,6.90
2019-02-10T05:00:47.709Z,6.90
2019-02-10T05:01:54.540Z,6.90
2019-02-10T05:03:01.394Z,6.90
2019-02-10T05:04:08.099Z,6.90
2019-02-10T05:05:14.827Z,6.90
2019-02-10T05:06:21.546Z,6.90
2019-02-10T05:07:28.364Z,6.90
2019-02-10T05:08:35.104Z,6.90
2019-02-10T05:09:41.825Z,6.90
2019-02-10T05:10:48.623Z,7.00
2019-02-10T05:11:55.372Z,7.00
2019-02-10T05:13:02.125Z,7.00
2019-02-10T05:14:08.872Z,7.00
2019-02-10T05:15:15.743Z,7.00
2019-02-10T05:16:22.622Z,7.00
2019-02-10T05:17:29.436Z,7.00
2019-02-10T05:18:36.173Z,7.00
2019-02-10T05:19:43.016Z,7.00
2019-02-10T05:20:49.825Z,7.00
2019-02-10T05:21:56.635Z,7.00
2019-02-10T05:23:03.436Z,7.00
2019-02-10T05:24:10.165Z,7.00
2019-02-10T05:25:16.910Z,7.00
2019-02-10T05:26:23.643Z,7.10
2019-02-10T05:27:30.449Z,7.10
2019-02-10T05:28:37.239Z,7.10
2019-02-10T05:29:44.124Z,7.10
2019-02-10T05:30:50.880Z,7.10
2019-02-10T05:31:57.598Z,7.10
2019-02-10T05:33:04.328Z,7.10
2019-02-10T05:34:11.048Z,7.20
2019-02-10T05:35:17.770Z,7.20
2019-02-10T05:36:24.647Z,7.20
2019-02-10T05:37:31.400Z,7.20
2019-02-10T05:38:38.299Z,7.20
2019-02-10T05:39:45.024Z,7.20
2019-02-10T05:40:51.926Z,7.20
2019-02-10T05:41:58.745Z,7.20
2019-02-10T05:43:05.560Z,7.20
2019-02-10T05:44:12.285Z,7.20
2019-02-10T05:45:19.009Z,7.20
2019-02-10T05:46:25.910Z,7.30
2019-02-10T05:47:32.725Z,7.30
2019-02-10T05:48:39.618Z,7.20
2019-02-10T05:49:46.379Z,7.20
2019-02-10T05:50:54.232Z,7.30
2019-02-10T05:52:00.949Z,7.30
2019-02-10T05:53:07.759Z,7.30
2019-02-10T05:54:14.498Z,7.30
2019-02-10T05:55:21.321Z,7.30
2019-02-10T05:56:28.065Z,7.30
2019-02-10T05:57:34.862Z,7.30
2019-02-10T05:58:41.667Z,7.30
2019-02-10T05:59:51.642Z,7.30
2019-02-10T06:01:57.815Z,7.30
2019-02-10T06:03:04.537Z,7.30
2019-02-10T06:04:11.384Z,7.30
2019-02-10T06:05:22.281Z,7.30
2019-02-10T06:06:29.040Z,7.30
2019-02-10T06:07:37.153Z,7.30
2019-02-10T06:08:43.973Z,7.30
2019-02-10T06:09:50.704Z,7.30
2019-02-10T06:10:57.449Z,7.30
2019-02-10T06:12:04.276Z,7.30
2019-02-10T06:13:11.093Z,7.30
2019-02-10T06:14:17.829Z,7.30
2019-02-10T06:15:24.650Z,7.30
2019-02-10T06:16:31.462Z,7.40
2019-02-10T06:17:38.279Z,7.30
2019-02-10T06:18:45.039Z,7.30
2019-02-10T06:19:51.840Z,7.30
2019-02-10T06:20:58.594Z,7.30
2019-02-10T06:22:05.315Z,7.40
2019-02-10T06:23:12.058Z,7.40
2019-02-10T06:24:18.780Z,7.40
2019-02-10T06:25:25.579Z,7.40
2019-02-10T06:26:32.390Z,7.40
2019-02-10T06:27:39.119Z,7.40
2019-02-10T06:28:46.972Z,7.40
2019-02-10T06:29:53.771Z,7.40
2019-02-10T06:31:00.662Z,7.40
2019-02-10T06:32:07.394Z,7.40
2019-02-10T06:33:14.129Z,7.40
2019-02-10T06:34:20.872Z,7.40
2019-02-10T06:35:27.606Z,7.40
2019-02-10T06:36:34.418Z,7.40
2019-02-10T06:37:41.139Z,7.40
2019-02-10T06:38:47.890Z,7.40
2019-02-10T06:39:57.783Z,7.40
2019-02-10T06:41:04.498Z,7.40
2019-02-10T06:42:11.247Z,7.40
2019-02-10T06:43:17.960Z,7.40
2019-02-10T06:44:24.707Z,7.40
2019-02-10T06:45:31.519Z,7.40
2019-02-10T06:46:38.319Z,7.40
2019-02-10T06:47:45.161Z,7.50
2019-02-10T06:48:52.027Z,7.50
2019-02-10T06:49:58.840Z,7.50
2019-02-10T06:51:05.885Z,7.50
2019-02-10T06:52:12.635Z,7.50
2019-02-10T06:53:19.442Z,7.50
2019-02-10T06:54:26.248Z,7.50
2019-02-10T06:55:32.976Z,7.50
2019-02-10T06:56:39.715Z,7.50
2019-02-10T06:57:46.463Z,7.50
2019-02-10T06:58:53.310Z,7.60
2019-02-10T07:00:22.419Z,7.50
2019-02-10T07:01:38.458Z,7.50
2019-02-10T07:03:46.039Z,7.50
2019-02-10T07:04:52.781Z,7.50
2019-02-10T07:05:59.503Z,7.60
2019-02-10T07:07:06.244Z,7.60
2019-02-10T07:08:12.961Z,7.50
2019-02-10T07:09:20.097Z,7.50
2019-02-10T07:10:26.834Z,7.50
2019-02-10T07:11:33.593Z,7.50
2019-02-10T07:12:53.300Z,7.50
2019-02-10T07:14:03.479Z,7.50
2019-02-10T07:16:21.675Z,7.60
2019-02-10T07:18:11.610Z,7.60
2019-02-10T07:20:38.738Z,7.60
2019-02-10T07:21:49.623Z,7.60
2019-02-10T07:23:34.160Z,7.60
2019-02-10T07:24:51.079Z,7.50
2019-02-10T07:26:09.960Z,7.60
2019-02-10T07:27:26.091Z,7.60
2019-02-10T07:29:06.127Z,7.60
2019-02-10T07:30:49.265Z,7.60
2019-02-10T07:32:27.389Z,7.60
2019-02-10T07:34:36.635Z,7.60
2019-02-10T07:36:23.839Z,7.60
2019-02-10T07:38:38.706Z,7.60
2019-02-10T07:40:44.848Z,7.70
2019-02-10T07:42:50.204Z,7.70
2019-02-10T07:44:36.327Z,7.70
2019-02-10T07:46:33.187Z,7.70
2019-02-10T07:48:36.881Z,7.70
2019-02-10T07:50:09.771Z,7.70
2019-02-10T07:51:40.859Z,7.70
2019-02-10T07:53:26.610Z,7.80
2019-02-10T07:55:19.662Z,7.70
2019-02-10T07:57:41.880Z,7.70
2019-02-10T07:59:39.678Z,7.80
2019-02-10T08:01:24.218Z,7.80
2019-02-10T08:03:08.533Z,7.80
2019-02-10T08:04:57.132Z,7.80
2019-02-10T08:06:55.201Z,7.80
2019-02-10T08:08:47.080Z,7.80
2019-02-10T08:11:00.748Z,7.80
2019-02-10T08:12:49.784Z,7.80
2019-02-10T08:14:39.583Z,7.90
2019-02-10T08:16:58.289Z,7.90
2019-02-10T08:19:23.902Z,7.90
2019-02-10T08:21:15.066Z,7.90
2019-02-10T08:23:18.909Z,7.90
2019-02-10T08:24:55.116Z,7.90
2019-02-10T08:27:14.297Z,7.90
2019-02-10T08:29:28.999Z,7.90
2019-02-10T08:31:31.939Z,7.90
2019-02-10T08:33:10.877Z,7.90
2019-02-10T08:35:06.629Z,7.90
2019-02-10T08:37:32.405Z,7.80
2019-02-10T08:39:43.482Z,7.80
2019-02-10T08:41:46.165Z,7.80
2019-02-10T08:43:59.533Z,7.80
2019-02-10T08:46:01.954Z,7.80
2019-02-10T08:48:02.181Z,7.70
2019-02-10T08:49:42.259Z,7.70
2019-02-10T08:51:58.563Z,7.70
2019-02-10T08:53:38.569Z,7.70
2019-02-10T08:54:45.318Z,7.70
2019-02-10T08:55:52.130Z,7.70
2019-02-10T08:56:58.866Z,7.70
2019-02-10T08:58:05.591Z,7.70
2019-02-10T08:59:12.338Z,7.70
2019-02-10T09:00:19.153Z,7.70
2019-02-10T09:01:25.920Z,7.70
2019-02-10T09:02:32.618Z,7.70
2019-02-10T09:03:39.360Z,7.80
2019-02-10T09:04:46.112Z,7.80
2019-02-10T09:05:52.866Z,7.80
2019-02-10T09:06:59.704Z,7.80
2019-02-10T09:08:06.538Z,7.80
2019-02-10T09:09:13.276Z,7.80
2019-02-10T09:10:20.117Z,7.90
2019-02-10T09:11:26.895Z,7.90
2019-02-10T09:12:33.616Z,7.90
2019-02-10T09:13:41.489Z,8.00
2019-02-10T09:14:48.194Z,8.00
2019-02-10T09:15:54.930Z,8.10
2019-02-10T09:17:01.822Z,8.10
2019-02-10T09:18:08.641Z,8.10
2019-02-10T09:19:15.400Z,8.10
2019-02-10T09:20:22.148Z,8.20
2019-02-10T09:21:28.903Z,8.20
2019-02-10T09:22:35.793Z,8.20
2019-02-10T09:23:42.534Z,8.30
2019-02-10T09:24:49.328Z,8.30
2019-02-10T09:25:56.162Z,8.30
2019-02-10T09:27:02.891Z,8.40
2019-02-10T09:28:09.790Z,8.40
2019-02-10T09:29:16.599Z,8.40
2019-02-10T09:30:23.478Z,8.40
2019-02-10T09:31:30.300Z,8.40
2019-02-10T09:32:37.183Z,8.50
2019-02-10T09:33:44.977Z,8.50
2019-02-10T09:34:51.711Z,8.50
2019-02-10T09:35:58.452Z,8.60
2019-02-10T09:37:05.194Z,8.60
2019-02-10T09:38:11.907Z,8.70
2019-02-10T09:39:18.619Z,8.70
2019-02-10T09:40:25.345Z,8.70
2019-02-10T09:41:32.098Z,8.70
2019-02-10T09:42:39.079Z,8.70
2019-02-10T09:43:48.260Z,8.80
2019-02-10T09:44:55.156Z,8.80
2019-02-10T09:46:02.015Z,8.90
2019-02-10T09:47:08.789Z,8.90
2019-02-10T09:48:15.497Z,8.90
2019-02-10T09:49:22.314Z,8.90
2019-02-10T09:50:29.107Z,9.00
2019-02-10T09:51:38.949Z,9.00
2019-02-10T09:52:46.008Z,9.00
2019-02-10T09:53:52.758Z,9.00
2019-02-10T09:54:59.485Z,9.00
2019-02-10T09:56:06.286Z,9.10
2019-02-10T09:57:13.093Z,9.10
2019-02-10T09:58:19.901Z,9.10
2019-02-10T09:59:26.704Z,9.10
2019-02-10T10:00:33.532Z,9.10
2019-02-10T10:01:40.260Z,9.10
2019-02-10T10:02:46.984Z,9.20
2019-02-10T10:03:53.730Z,9.20
2019-02-10T10:05:00.476Z,9.20
2019-02-10T10:06:07.197Z,9.20
2019-02-10T10:07:13.934Z,9.20
2019-02-10T10:08:20.652Z,9.20
2019-02-10T10:09:27.413Z,9.30
2019-02-10T10:10:34.235Z,9.30
2019-02-10T10:11:41.053Z,9.30
2019-02-10T10:12:47.765Z,9.30
2019-02-10T10:13:54.651Z,9.30
2019-02-10T10:15:01.556Z,9.30
2019-02-10T10:16:08.294Z,9.30
2019-02-10T10:17:15.120Z,9.40
2019-02-10T10:18:21.960Z,9.40
2019-02-10T10:19:28.717Z,9.40
2019-02-10T10:20:35.532Z,9.40
2019-02-10T10:21:42.403Z,9.40
2019-02-10T10:22:49.137Z,9.40
2019-02-10T10:24:00.005Z,9.40
2019-02-10T10:25:07.316Z,9.40
2019-02-10T10:26:14.160Z,9.50
2019-02-10T10:27:20.891Z,9.50
2019-02-10T10:28:27.702Z,9.50
2019-02-10T10:29:34.425Z,9.50
2019-02-10T10:30:41.149Z,9.50
2019-02-10T10:31:47.863Z,9.50
2019-02-10T10:32:54.696Z,9.60
2019-02-10T10:34:01.453Z,9.60
2019-02-10T10:35:08.409Z,9.60
2019-02-10T10:36:15.289Z,9.60
2019-02-10T10:37:22.082Z,9.60
2019-02-10T10:38:28.895Z,9.60
2019-02-10T10:39:37.792Z,9.60
2019-02-10T10:40:44.503Z,9.60
2019-02-10T10:41:51.266Z,9.60
2019-02-10T10:42:58.198Z,9.60
2019-02-10T10:44:05.005Z,9.70
2019-02-10T10:45:12.457Z,9.70
2019-02-10T10:46:19.204Z,9.70
2019-02-10T10:47:26.009Z,9.70
2019-02-10T10:48:32.764Z,9.70
2019-02-10T10:49:39.470Z,9.70
2019-02-10T10:50:46.197Z,9.70
2019-02-10T10:51:53.068Z,9.70
2019-02-10T10:53:00.987Z,9.80
2019-02-10T10:54:07.765Z,9.70
2019-02-10T10:55:14.596Z,9.80
2019-02-10T10:56:21.470Z,9.70
2019-02-10T10:57:28.223Z,9.80
2019-02-10T10:58:35.029Z,9.80
2019-02-10T10:59:41.854Z,9.80
2019-02-10T11:00:48.650Z,9.80
2019-02-10T11:01:55.378Z,9.80
2019-02-10T11:03:02.133Z,9.80
2019-02-10T11:04:12.276Z,9.80
2019-02-10T11:05:19.088Z,9.80
2019-02-10T11:06:25.867Z,9.80
2019-02-10T11:07:32.694Z,9.80
2019-02-10T11:08:39.469Z,9.90
2019-02-10T11:09:46.351Z,9.80
2019-02-10T11:10:53.249Z,9.90
2019-02-10T11:12:00.101Z,9.90
2019-02-10T11:13:06.926Z,9.90
2019-02-10T11:14:13.724Z,9.90
2019-02-10T11:15:20.523Z,9.90
2019-02-10T11:16:27.229Z,9.90
2019-02-10T11:17:34.047Z,9.90
2019-02-10T11:18:40.774Z,9.90
2019-02-10T11:19:48.513Z,9.90
2019-02-10T11:20:55.346Z,10.00
2019-02-10T11:22:02.103Z,10.00
2019-02-10T11:23:08.925Z,10.00
2019-02-10T11:24:15.667Z,10.00
2019-02-10T11:25:22.544Z,10.00
2019-02-10T11:26:29.284Z,10.00
2019-02-10T11:27:36.087Z,10.00
2019-02-10T11:28:42.837Z,10.00
2019-02-10T11:29:49.653Z,10.10
2019-02-10T11:30:56.431Z,10.10
2019-02-10T11:32:03.330Z,10.10
2019-02-10T11:33:10.098Z,10.10
2019-02-10T11:34:16.934Z,10.10
2019-02-10T11:35:23.683Z,10.10
2019-02-10T11:36:30.441Z,10.20
2019-02-10T11:37:37.260Z,10.20
2019-02-10T11:38:43.998Z,10.20
2019-02-10T11:39:50.831Z,10.20
2019-02-10T11:40:58.853Z,10.20
2019-02-10T11:42:05.630Z,10.20
2019-02-10T11:43:12.442Z,10.20
2019-02-10T11:44:19.316Z,10.20
2019-02-10T11:45:26.110Z,10.30
2019-02-10T11:46:33.379Z,10.30
2019-02-10T11:47:40.110Z,10.30
2019-02-10T11:48:46.927Z,10.30
2019-02-10T11:49:53.688Z,10.30
2019-02-10T11:51:03.748Z,10.30
2019-02-10T11:52:10.506Z,10.40
2019-02-10T11:53:17.405Z,10.40
2019-02-10T11:54:24.146Z,10.40
2019-02-10T11:55:30.984Z,10.40
2019-02-10T11:56:37.936Z,10.40
2019-02-10T11:57:44.853Z,10.40
2019-02-10T11:58:51.598Z,10.40
2019-02-10T11:59:58.420Z,10.50
2019-02-10T12:01:05.152Z,10.50
2019-02-10T12:02:19.513Z,10.50
2019-02-10T12:03:26.337Z,10.50
2019-02-10T12:04:33.097Z,10.50
2019-02-10T12:05:39.903Z,10.50
2019-02-10T12:06:46.646Z,10.50
2019-02-10T12:07:53.459Z,10.60
2019-02-10T12:09:00.613Z,10.60
2019-02-10T12:10:09.560Z,10.60
2019-02-10T12:11:16.452Z,10.60
2019-02-10T12:12:23.309Z,10.60
2019-02-10T12:13:30.043Z,10.60
2019-02-10T12:14:36.865Z,10.70
2019-02-10T12:15:43.714Z,10.70
2019-02-10T12:16:50.527Z,10.70
2019-02-10T12:17:57.280Z,10.70
2019-02-10T12:19:04.171Z,10.80
2019-02-10T12:20:11.468Z,10.80
2019-02-10T12:21:18.213Z,10.80
2019-02-10T12:22:25.270Z,10.80
2019-02-10T12:23:32.082Z,10.90
2019-02-10T12:24:40.078Z,10.90
2019-02-10T12:25:47.884Z,10.90
2019-02-10T12:26:54.647Z,11.00
2019-02-10T12:28:01.455Z,11.00
2019-02-10T12:29:08.445Z,11.00
2019-02-10T12:30:15.235Z,11.00
2019-02-10T12:31:22.116Z,11.00
2019-02-10T12:32:28.942Z,11.10
2019-02-10T12:33:36.036Z,11.10
2019-02-10T12:34:42.891Z,11.10
2019-02-10T12:35:49.696Z,11.10
2019-02-10T12:36:56.458Z,11.10
2019-02-10T12:38:03.252Z,11.20
2019-02-10T12:39:10.251Z,11.20
2019-02-10T12:40:17.222Z,11.20
2019-02-10T12:41:24.059Z,11.30
2019-02-10T12:42:30.824Z,11.30
2019-02-10T12:43:37.595Z,11.30
2019-02-10T12:44:44.337Z,11.30
2019-02-10T12:45:51.082Z,11.30
2019-02-10T12:46:57.831Z,11.40
2019-02-10T12:48:04.543Z,11.40
2019-02-10T12:49:11.405Z,11.40
2019-02-10T12:50:18.226Z,11.50
2019-02-10T12:51:24.974Z,11.40
2019-02-10T12:52:31.749Z,11.50
2019-02-10T12:53:41.793Z,11.50
2019-02-10T12:54:48.606Z,11.50
2019-02-10T12:55:55.480Z,11.50
2019-02-10T12:57:02.279Z,11.50
2019-02-10T12:58:09.111Z,11.60
2019-02-10T12:59:15.923Z,11.60
2019-02-10T13:00:22.691Z,11.60
2019-02-10T13:01:29.422Z,11.60
2019-02-10T13:02:36.308Z,11.60
2019-02-10T13:03:43.030Z,11.60
2019-02-10T13:04:49.945Z,11.60
2019-02-10T13:05:56.862Z,11.60
2019-02-10T13:07:03.653Z,11.60
2019-02-10T13:08:10.473Z,11.70
2019-02-10T13:09:17.315Z,11.70
2019-02-10T13:10:24.061Z,11.70
2019-02-10T13:11:31.010Z,11.70
2019-02-10T13:12:37.752Z,11.70
2019-02-10T13:13:44.579Z,11.70
2019-02-10T13:14:51.389Z,11.80
2019-02-10T13:15:58.213Z,11.80
2019-02-10T13:17:04.960Z,11.70
2019-02-10T13:18:11.718Z,11.80
2019-02-10T13:19:18.567Z,11.80
2019-02-10T13:20:25.386Z,11.80
2019-02-10T13:21:32.119Z,11.80
2019-02-10T13:22:38.887Z,11.80
2019-02-10T13:23:45.720Z,11.80
2019-02-10T13:24:52.437Z,11.80
2019-02-10T13:25:59.178Z,11.80
2019-02-10T13:27:05.919Z,11.80
2019-02-10T13:28:12.732Z,11.80
2019-02-10T13:29:19.485Z,11.80
2019-02-10T13:30:26.270Z,11.80
2019-02-10T13:31:33.092Z,11.80
2019-02-10T13:32:39.842Z,11.80
2019-02-10T13:33:46.753Z,11.80
2019-02-10T13:34:53.573Z,11.80
2019-02-10T13:36:00.392Z,11.80
2019-02-10T13:37:07.151Z,11.80
2019-02-10T13:38:14.047Z,11.80
2019-02-10T13:39:20.803Z,11.80
2019-02-10T13:40:27.542Z,11.80
2019-02-10T13:41:36.961Z,11.80
2019-02-10T13:42:43.679Z,11.80
2019-02-10T13:43:50.442Z,11.80
2019-02-10T13:44:57.334Z,11.80
2019-02-10T13:46:04.167Z,11.80
2019-02-10T13:47:10.992Z,11.80
2019-02-10T13:48:17.759Z,11.80
2019-02-10T13:49:24.496Z,11.90
2019-02-10T13:50:31.251Z,11.90
2019-02-10T13:51:38.136Z,11.90
2019-02-10T13:52:44.890Z,11.80
2019-02-10T13:53:51.725Z,11.90
2019-02-10T13:54:58.570Z,11.80
2019-02-10T13:56:05.379Z,11.90
2019-02-10T13:57:12.186Z,11.90
2019-02-10T13:58:18.923Z,11.80
2019-02-10T13:59:26.021Z,11.90
2019-02-10T14:00:32.757Z,11.90
2019-02-10T14:01:39.522Z,11.90
2019-02-10T14:02:46.304Z,11.90
2019-02-10T14:03:53.230Z,11.90
2019-02-10T14:05:00.239Z,11.90
2019-02-10T14:06:07.543Z,11.90
2019-02-10T14:07:14.560Z,11.90
2019-02-10T14:08:21.340Z,11.90
2019-02-10T14:09:28.086Z,11.90
2019-02-10T14:10:34.985Z,11.90
2019-02-10T14:11:41.788Z,11.90
2019-02-10T14:12:48.557Z,11.90
2019-02-10T14:13:55.359Z,11.90
2019-02-10T14:15:02.092Z,11.90
2019-02-10T14:16:09.055Z,12.00
2019-02-10T14:17:15.810Z,11.90
2019-02-10T14:18:22.625Z,11.90
2019-02-10T14:19:29.466Z,12.00
2019-02-10T14:20:36.191Z,12.00
2019-02-10T14:21:43.049Z,12.00
2019-02-10T14:22:49.878Z,11.90
2019-02-10T14:23:56.626Z,12.00
2019-02-10T14:25:03.449Z,12.00
2019-02-10T14:26:10.211Z,11.90
2019-02-10T14:27:17.048Z,11.90
2019-02-10T14:28:23.887Z,11.90
2019-02-10T14:29:30.684Z,11.90
2019-02-10T14:30:37.441Z,11.90
2019-02-10T14:31:44.172Z,11.80
2019-02-10T14:32:54.195Z,11.90
2019-02-10T14:34:01.074Z,11.80
2019-02-10T14:35:08.927Z,11.80
2019-02-10T14:36:15.690Z,11.80
2019-02-10T14:37:22.575Z,11.70
2019-02-10T14:38:36.307Z,11.70
2019-02-10T14:39:37.930Z,11.70
2019-02-10T14:40:44.687Z,11.60
2019-02-10T14:41:51.577Z,11.60
2019-02-10T14:42:58.323Z,11.60
2019-02-10T14:44:05.209Z,11.50
2019-02-10T14:45:12.970Z,11.50
2019-02-10T14:46:19.973Z,11.50
2019-02-10T14:47:26.793Z,11.40
2019-02-10T14:48:33.610Z,11.30
2019-02-10T14:49:40.512Z,11.30
2019-02-10T14:50:47.432Z,11.30
2019-02-10T14:51:54.166Z,11.20
2019-02-10T14:53:00.885Z,11.20
2019-02-10T14:54:07.699Z,11.10
2019-02-10T14:55:14.454Z,11.10
2019-02-10T14:56:21.328Z,11.10
2019-02-10T14:57:28.076Z,11.00
2019-02-10T14:58:42.751Z,11.00
2019-02-10T14:59:43.288Z,10.90
2019-02-10T15:00:50.083Z,10.90
2019-02-10T15:01:56.846Z,10.90
2019-02-10T15:03:03.652Z,10.80
2019-02-10T15:04:10.445Z,10.80
2019-02-10T15:05:17.276Z,10.80
2019-02-10T15:06:24.108Z,10.80
2019-02-10T15:07:30.999Z,10.80
2019-02-10T15:08:37.857Z,10.70
2019-02-10T15:09:45.886Z,10.70
2019-02-10T15:10:52.793Z,10.70
2019-02-10T15:12:00.004Z,10.70
2019-02-10T15:13:06.855Z,10.70
2019-02-10T15:14:13.692Z,10.60
2019-02-10T15:15:20.443Z,10.60
2019-02-10T15:16:27.211Z,10.60
2019-02-10T15:17:34.120Z,10.60
2019-02-10T15:18:41.898Z,10.60
2019-02-10T15:19:48.659Z,10.50
2019-02-10T15:20:55.475Z,10.50
2019-02-10T15:22:02.236Z,10.50
2019-02-10T15:23:09.109Z,10.50
2019-02-10T15:24:15.849Z,10.50
2019-02-10T15:25:22.612Z,10.50
2019-02-10T15:26:29.444Z,10.50
2019-02-10T15:27:36.195Z,10.40
2019-02-10T15:28:43.088Z,10.40